sensor_id;sensor_type;location;lat;lon;timestamp;P1;durP1;ratioP1;P2;durP2;ratioP2
7231;SDS011;3657;49.630;11.018;2022-09-09T00:01:32;3.30;;;3.20;;
7231;SDS011;3657;49.630;11.018;2022-09-09T00:04:09;2.80;;;2.70;;
7231;SDS011;3657;49.630;11.018;2022-09-09T00:06:43;3.70;;;3.50;;
7231;SDS011;3657;49.630;11.018;2022-09-09T00:09:15;3.47;;;3.37;;
7231;SDS011;3657;49.630;11.018;2022-09-09T00:11:43;3.37;;;3.17;;
7231;SDS011;3657;49.630;11.018;2022-09-09T00:14:17;8.67;;;3.40;;
7231;SDS011;3657;49.630;11.018;2022-09-09T00:16:49;2.80;;;2.70;;
7231;SDS011;3657;49.630;11.018;2022-09-09T00:19:22;3.40;;;3.30;;
7231;SDS011;3657;49.630;11.018;2022-09-09T00:21:53;3.70;;;3.50;;
7231;SDS011;3657;49.630;11.018;2022-09-09T00:24:29;4.03;;;3.93;;
7231;SDS011;3657;49.630;11.018;2022-09-09T00:27:06;3.63;;;3.53;;
7231;SDS011;3657;49.630;11.018;2022-09-09T00:29:41;3.73;;;3.63;;
7231;SDS011;3657;49.630;11.018;2022-09-09T00:32:13;2.83;;;2.73;;
7231;SDS011;3657;49.630;11.018;2022-09-09T00:34:44;3.33;;;3.23;;
7231;SDS011;3657;49.630;11.018;2022-09-09T00:37:13;3.30;;;3.20;;
7231;SDS011;3657;49.630;11.018;2022-09-09T00:39:42;3.33;;;3.23;;
7231;SDS011;3657;49.630;11.018;2022-09-09T00:42:13;3.20;;;3.10;;
7231;SDS011;3657;49.630;11.018;2022-09-09T00:44:51;3.20;;;3.10;;
7231;SDS011;3657;49.630;11.018;2022-09-09T00:47:38;2.63;;;2.60;;
7231;SDS011;3657;49.630;11.018;2022-09-09T00:50:13;3.50;;;3.40;;
7231;SDS011;3657;49.630;11.018;2022-09-09T00:52:51;3.20;;;3.10;;
7231;SDS011;3657;49.630;11.018;2022-09-09T00:55:31;3.67;;;3.57;;
7231;SDS011;3657;49.630;11.018;2022-09-09T00:58:06;3.83;;;3.73;;
7231;SDS011;3657;49.630;11.018;2022-09-09T01:00:35;3.23;;;3.13;;
7231;SDS011;3657;49.630;11.018;2022-09-09T01:03:18;3.43;;;3.33;;
7231;SDS011;3657;49.630;11.018;2022-09-09T01:05:54;3.93;;;3.83;;
7231;SDS011;3657;49.630;11.018;2022-09-09T01:08:36;3.60;;;3.50;;
7231;SDS011;3657;49.630;11.018;2022-09-09T01:11:20;3.47;;;3.37;;
7231;SDS011;3657;49.630;11.018;2022-09-09T01:13:49;3.40;;;3.30;;
7231;SDS011;3657;49.630;11.018;2022-09-09T01:16:23;6.83;;;3.47;;
7231;SDS011;3657;49.630;11.018;2022-09-09T01:18:51;3.73;;;3.63;;
7231;SDS011;3657;49.630;11.018;2022-09-09T01:21:22;4.10;;;3.80;;
7231;SDS011;3657;49.630;11.018;2022-09-09T01:24:05;2.20;;;2.20;;
7231;SDS011;3657;49.630;11.018;2022-09-09T01:26:46;4.30;;;4.20;;
7231;SDS011;3657;49.630;11.018;2022-09-09T01:29:16;3.80;;;3.60;;
7231;SDS011;3657;49.630;11.018;2022-09-09T01:31:51;3.50;;;3.40;;
7231;SDS011;3657;49.630;11.018;2022-09-09T01:34:20;3.60;;;3.50;;
7231;SDS011;3657;49.630;11.018;2022-09-09T01:36:49;3.90;;;3.80;;
7231;SDS011;3657;49.630;11.018;2022-09-09T01:39:22;4.00;;;3.80;;
7231;SDS011;3657;49.630;11.018;2022-09-09T01:41:50;3.57;;;3.37;;
7231;SDS011;3657;49.630;11.018;2022-09-09T01:44:18;3.67;;;3.50;;
7231;SDS011;3657;49.630;11.018;2022-09-09T01:46:45;3.70;;;3.50;;
7231;SDS011;3657;49.630;11.018;2022-09-09T01:49:12;3.57;;;3.47;;
7231;SDS011;3657;49.630;11.018;2022-09-09T01:51:40;3.60;;;3.50;;
7231;SDS011;3657;49.630;11.018;2022-09-09T01:54:09;3.97;;;3.87;;
7231;SDS011;3657;49.630;11.018;2022-09-09T01:56:40;3.73;;;3.63;;
7231;SDS011;3657;49.630;11.018;2022-09-09T01:59:21;3.87;;;3.77;;
7231;SDS011;3657;49.630;11.018;2022-09-09T02:01:58;3.67;;;3.57;;
7231;SDS011;3657;49.630;11.018;2022-09-09T02:04:36;3.93;;;3.83;;
7231;SDS011;3657;49.630;11.018;2022-09-09T02:07:06;3.57;;;3.47;;
7231;SDS011;3657;49.630;11.018;2022-09-09T02:09:44;3.93;;;3.83;;
7231;SDS011;3657;49.630;11.018;2022-09-09T02:12:18;4.20;;;4.07;;
7231;SDS011;3657;49.630;11.018;2022-09-09T02:14:50;4.43;;;4.33;;
7231;SDS011;3657;49.630;11.018;2022-09-09T02:17:30;4.23;;;4.13;;
7231;SDS011;3657;49.630;11.018;2022-09-09T02:20:02;4.50;;;4.30;;
7231;SDS011;3657;49.630;11.018;2022-09-09T02:22:32;3.93;;;3.83;;
7231;SDS011;3657;49.630;11.018;2022-09-09T02:25:02;3.80;;;3.70;;
7231;SDS011;3657;49.630;11.018;2022-09-09T02:27:30;3.97;;;3.87;;
7231;SDS011;3657;49.630;11.018;2022-09-09T02:29:59;3.80;;;3.70;;
7231;SDS011;3657;49.630;11.018;2022-09-09T02:32:28;4.23;;;3.93;;
7231;SDS011;3657;49.630;11.018;2022-09-09T02:34:58;4.07;;;3.97;;
7231;SDS011;3657;49.630;11.018;2022-09-09T02:37:30;3.90;;;3.80;;
7231;SDS011;3657;49.630;11.018;2022-09-09T02:40:02;4.10;;;4.00;;
7231;SDS011;3657;49.630;11.018;2022-09-09T02:42:29;4.47;;;4.27;;
7231;SDS011;3657;49.630;11.018;2022-09-09T02:44:56;4.20;;;4.10;;
7231;SDS011;3657;49.630;11.018;2022-09-09T02:47:27;4.00;;;3.90;;
7231;SDS011;3657;49.630;11.018;2022-09-09T02:50:02;4.60;;;4.40;;
7231;SDS011;3657;49.630;11.018;2022-09-09T02:52:40;3.77;;;3.67;;
7231;SDS011;3657;49.630;11.018;2022-09-09T02:55:17;3.80;;;3.70;;
7231;SDS011;3657;49.630;11.018;2022-09-09T02:57:49;4.00;;;3.80;;
7231;SDS011;3657;49.630;11.018;2022-09-09T03:00:22;3.80;;;3.70;;
7231;SDS011;3657;49.630;11.018;2022-09-09T03:02:51;3.77;;;3.67;;
7231;SDS011;3657;49.630;11.018;2022-09-09T03:05:19;3.73;;;3.63;;
7231;SDS011;3657;49.630;11.018;2022-09-09T03:07:46;3.80;;;3.60;;
7231;SDS011;3657;49.630;11.018;2022-09-09T03:10:14;4.40;;;4.30;;
7231;SDS011;3657;49.630;11.018;2022-09-09T03:12:41;4.53;;;4.43;;
7231;SDS011;3657;49.630;11.018;2022-09-09T03:15:08;4.50;;;4.30;;
7231;SDS011;3657;49.630;11.018;2022-09-09T03:17:35;3.70;;;3.60;;
7231;SDS011;3657;49.630;11.018;2022-09-09T03:20:04;3.50;;;3.40;;
7231;SDS011;3657;49.630;11.018;2022-09-09T03:22:33;3.70;;;3.60;;
7231;SDS011;3657;49.630;11.018;2022-09-09T03:25:00;4.53;;;4.40;;
7231;SDS011;3657;49.630;11.018;2022-09-09T03:27:27;4.53;;;4.33;;
7231;SDS011;3657;49.630;11.018;2022-09-09T03:29:54;3.70;;;3.60;;
7231;SDS011;3657;49.630;11.018;2022-09-09T03:32:22;4.17;;;4.07;;
7231;SDS011;3657;49.630;11.018;2022-09-09T03:34:50;3.27;;;3.17;;
7231;SDS011;3657;49.630;11.018;2022-09-09T03:37:19;3.63;;;3.43;;
7231;SDS011;3657;49.630;11.018;2022-09-09T03:39:47;3.90;;;3.80;;
7231;SDS011;3657;49.630;11.018;2022-09-09T03:42:14;3.50;;;3.40;;
7231;SDS011;3657;49.630;11.018;2022-09-09T03:44:43;3.87;;;3.77;;
7231;SDS011;3657;49.630;11.018;2022-09-09T03:47:14;4.17;;;4.07;;
7231;SDS011;3657;49.630;11.018;2022-09-09T03:49:42;3.47;;;3.37;;
7231;SDS011;3657;49.630;11.018;2022-09-09T03:52:09;4.07;;;3.97;;
7231;SDS011;3657;49.630;11.018;2022-09-09T03:54:37;3.60;;;3.50;;
7231;SDS011;3657;49.630;11.018;2022-09-09T03:57:04;4.20;;;4.10;;
7231;SDS011;3657;49.630;11.018;2022-09-09T03:59:31;3.60;;;3.50;;
7231;SDS011;3657;49.630;11.018;2022-09-09T04:01:58;4.20;;;3.93;;
7231;SDS011;3657;49.630;11.018;2022-09-09T04:04:25;4.17;;;4.07;;
7231;SDS011;3657;49.630;11.018;2022-09-09T04:06:52;3.83;;;3.73;;
7231;SDS011;3657;49.630;11.018;2022-09-09T04:09:19;4.90;;;4.70;;
7231;SDS011;3657;49.630;11.018;2022-09-09T04:11:47;4.40;;;4.23;;
7231;SDS011;3657;49.630;11.018;2022-09-09T04:14:14;4.30;;;4.20;;
7231;SDS011;3657;49.630;11.018;2022-09-09T04:16:41;3.57;;;3.47;;
7231;SDS011;3657;49.630;11.018;2022-09-09T04:19:09;4.47;;;4.37;;
7231;SDS011;3657;49.630;11.018;2022-09-09T04:21:38;3.70;;;3.60;;
7231;SDS011;3657;49.630;11.018;2022-09-09T04:24:06;4.97;;;4.77;;
7231;SDS011;3657;49.630;11.018;2022-09-09T04:26:33;3.97;;;3.87;;
7231;SDS011;3657;49.630;11.018;2022-09-09T04:29:01;4.07;;;3.87;;
7231;SDS011;3657;49.630;11.018;2022-09-09T04:31:28;4.10;;;3.90;;
7231;SDS011;3657;49.630;11.018;2022-09-09T04:33:55;3.80;;;3.70;;
7231;SDS011;3657;49.630;11.018;2022-09-09T04:36:22;4.27;;;4.07;;
7231;SDS011;3657;49.630;11.018;2022-09-09T04:38:49;3.77;;;3.67;;
7231;SDS011;3657;49.630;11.018;2022-09-09T04:41:15;4.50;;;4.30;;
7231;SDS011;3657;49.630;11.018;2022-09-09T04:43:42;4.10;;;4.00;;
7231;SDS011;3657;49.630;11.018;2022-09-09T04:46:11;4.50;;;4.27;;
7231;SDS011;3657;49.630;11.018;2022-09-09T04:48:37;4.23;;;4.13;;
7231;SDS011;3657;49.630;11.018;2022-09-09T04:51:05;4.03;;;3.93;;
7231;SDS011;3657;49.630;11.018;2022-09-09T04:53:34;3.17;;;3.17;;
7231;SDS011;3657;49.630;11.018;2022-09-09T04:56:01;5.00;;;4.73;;
7231;SDS011;3657;49.630;11.018;2022-09-09T04:58:29;4.43;;;4.33;;
7231;SDS011;3657;49.630;11.018;2022-09-09T05:01:02;3.77;;;3.67;;
7231;SDS011;3657;49.630;11.018;2022-09-09T05:03:31;4.20;;;4.10;;
7231;SDS011;3657;49.630;11.018;2022-09-09T05:06:02;4.50;;;4.40;;
7231;SDS011;3657;49.630;11.018;2022-09-09T05:08:29;4.40;;;4.07;;
7231;SDS011;3657;49.630;11.018;2022-09-09T05:10:56;3.80;;;3.70;;
7231;SDS011;3657;49.630;11.018;2022-09-09T05:13:24;4.30;;;4.20;;
7231;SDS011;3657;49.630;11.018;2022-09-09T05:15:51;4.30;;;4.10;;
7231;SDS011;3657;49.630;11.018;2022-09-09T05:18:19;4.77;;;4.67;;
7231;SDS011;3657;49.630;11.018;2022-09-09T05:20:48;4.07;;;3.97;;
7231;SDS011;3657;49.630;11.018;2022-09-09T05:23:16;4.10;;;3.90;;
7231;SDS011;3657;49.630;11.018;2022-09-09T05:25:42;4.00;;;3.90;;
7231;SDS011;3657;49.630;11.018;2022-09-09T05:28:11;3.97;;;3.87;;
7231;SDS011;3657;49.630;11.018;2022-09-09T05:30:38;4.20;;;4.10;;
7231;SDS011;3657;49.630;11.018;2022-09-09T05:33:05;4.47;;;4.27;;
7231;SDS011;3657;49.630;11.018;2022-09-09T05:35:34;4.63;;;4.43;;
7231;SDS011;3657;49.630;11.018;2022-09-09T05:38:02;4.47;;;4.37;;
7231;SDS011;3657;49.630;11.018;2022-09-09T05:40:29;4.23;;;4.13;;
7231;SDS011;3657;49.630;11.018;2022-09-09T05:42:59;4.37;;;4.23;;
7231;SDS011;3657;49.630;11.018;2022-09-09T05:45:26;4.23;;;4.13;;
7231;SDS011;3657;49.630;11.018;2022-09-09T05:47:53;5.73;;;5.63;;
7231;SDS011;3657;49.630;11.018;2022-09-09T05:50:20;4.20;;;4.10;;
7231;SDS011;3657;49.630;11.018;2022-09-09T05:52:47;3.83;;;3.73;;
7231;SDS011;3657;49.630;11.018;2022-09-09T05:55:16;4.10;;;4.00;;
7231;SDS011;3657;49.630;11.018;2022-09-09T05:57:47;4.40;;;4.20;;
7231;SDS011;3657;49.630;11.018;2022-09-09T06:00:14;4.47;;;4.27;;
7231;SDS011;3657;49.630;11.018;2022-09-09T06:02:41;4.07;;;3.87;;
7231;SDS011;3657;49.630;11.018;2022-09-09T06:05:08;5.23;;;4.80;;
7231;SDS011;3657;49.630;11.018;2022-09-09T06:07:36;4.27;;;4.17;;
7231;SDS011;3657;49.630;11.018;2022-09-09T06:10:07;4.20;;;3.90;;
7231;SDS011;3657;49.630;11.018;2022-09-09T06:12:35;4.00;;;3.90;;
7231;SDS011;3657;49.630;11.018;2022-09-09T06:15:02;3.77;;;3.67;;
7231;SDS011;3657;49.630;11.018;2022-09-09T06:17:30;3.77;;;3.67;;
7231;SDS011;3657;49.630;11.018;2022-09-09T06:19:57;4.30;;;4.20;;
7231;SDS011;3657;49.630;11.018;2022-09-09T06:22:24;4.20;;;3.90;;
7231;SDS011;3657;49.630;11.018;2022-09-09T06:24:50;4.10;;;4.00;;
7231;SDS011;3657;49.630;11.018;2022-09-09T06:27:18;3.67;;;3.57;;
7231;SDS011;3657;49.630;11.018;2022-09-09T06:29:47;4.40;;;4.20;;
7231;SDS011;3657;49.630;11.018;2022-09-09T06:32:14;2.73;;;2.63;;
7231;SDS011;3657;49.630;11.018;2022-09-09T06:34:40;4.07;;;3.97;;
7231;SDS011;3657;49.630;11.018;2022-09-09T06:37:07;3.60;;;3.50;;
7231;SDS011;3657;49.630;11.018;2022-09-09T06:39:34;3.40;;;3.27;;
7231;SDS011;3657;49.630;11.018;2022-09-09T06:42:00;3.87;;;3.70;;
7231;SDS011;3657;49.630;11.018;2022-09-09T06:44:27;4.40;;;4.20;;
7231;SDS011;3657;49.630;11.018;2022-09-09T06:46:59;3.73;;;3.60;;
7231;SDS011;3657;49.630;11.018;2022-09-09T06:49:26;4.00;;;3.90;;
7231;SDS011;3657;49.630;11.018;2022-09-09T06:51:53;4.43;;;4.13;;
7231;SDS011;3657;49.630;11.018;2022-09-09T06:54:19;4.03;;;3.93;;
7231;SDS011;3657;49.630;11.018;2022-09-09T06:56:47;3.57;;;3.47;;
7231;SDS011;3657;49.630;11.018;2022-09-09T06:59:15;3.80;;;3.70;;
7231;SDS011;3657;49.630;11.018;2022-09-09T07:01:42;3.90;;;3.80;;
7231;SDS011;3657;49.630;11.018;2022-09-09T07:04:10;4.03;;;3.93;;
7231;SDS011;3657;49.630;11.018;2022-09-09T07:06:40;3.73;;;3.63;;
7231;SDS011;3657;49.630;11.018;2022-09-09T07:09:09;4.20;;;4.03;;
7231;SDS011;3657;49.630;11.018;2022-09-09T07:11:38;3.80;;;3.70;;
7231;SDS011;3657;49.630;11.018;2022-09-09T07:14:06;3.57;;;3.47;;
7231;SDS011;3657;49.630;11.018;2022-09-09T07:16:34;3.60;;;3.50;;
7231;SDS011;3657;49.630;11.018;2022-09-09T07:19:02;3.73;;;3.63;;
7231;SDS011;3657;49.630;11.018;2022-09-09T07:21:30;4.23;;;4.03;;
7231;SDS011;3657;49.630;11.018;2022-09-09T07:23:58;4.33;;;4.23;;
7231;SDS011;3657;49.630;11.018;2022-09-09T07:26:26;4.30;;;4.10;;
7231;SDS011;3657;49.630;11.018;2022-09-09T07:28:55;3.37;;;3.27;;
7231;SDS011;3657;49.630;11.018;2022-09-09T07:31:22;3.97;;;3.77;;
7231;SDS011;3657;49.630;11.018;2022-09-09T07:33:51;4.20;;;4.00;;
7231;SDS011;3657;49.630;11.018;2022-09-09T07:36:18;3.47;;;3.27;;
7231;SDS011;3657;49.630;11.018;2022-09-09T07:38:48;3.90;;;3.70;;
7231;SDS011;3657;49.630;11.018;2022-09-09T07:41:18;3.00;;;2.90;;
7231;SDS011;3657;49.630;11.018;2022-09-09T07:43:47;3.30;;;3.10;;
7231;SDS011;3657;49.630;11.018;2022-09-09T07:46:15;3.70;;;3.60;;
7231;SDS011;3657;49.630;11.018;2022-09-09T07:48:44;3.03;;;2.93;;
7231;SDS011;3657;49.630;11.018;2022-09-09T07:51:12;4.10;;;3.80;;
7231;SDS011;3657;49.630;11.018;2022-09-09T07:53:43;4.27;;;3.43;;
7231;SDS011;3657;49.630;11.018;2022-09-09T07:56:12;3.80;;;3.70;;
7231;SDS011;3657;49.630;11.018;2022-09-09T07:58:41;3.67;;;3.57;;
7231;SDS011;3657;49.630;11.018;2022-09-09T08:01:12;3.93;;;3.73;;
7231;SDS011;3657;49.630;11.018;2022-09-09T08:03:40;3.60;;;3.30;;
7231;SDS011;3657;49.630;11.018;2022-09-09T08:06:08;3.80;;;3.70;;
7231;SDS011;3657;49.630;11.018;2022-09-09T08:08:35;3.47;;;3.37;;
7231;SDS011;3657;49.630;11.018;2022-09-09T08:11:04;3.97;;;3.87;;
7231;SDS011;3657;49.630;11.018;2022-09-09T08:13:35;3.60;;;3.50;;
7231;SDS011;3657;49.630;11.018;2022-09-09T08:16:04;4.13;;;3.93;;
7231;SDS011;3657;49.630;11.018;2022-09-09T08:18:35;3.87;;;3.63;;
7231;SDS011;3657;49.630;11.018;2022-09-09T08:21:06;4.40;;;4.20;;
7231;SDS011;3657;49.630;11.018;2022-09-09T08:23:36;3.20;;;3.00;;
7231;SDS011;3657;49.630;11.018;2022-09-09T08:26:05;3.80;;;3.60;;
7231;SDS011;3657;49.630;11.018;2022-09-09T08:28:35;4.10;;;3.80;;
7231;SDS011;3657;49.630;11.018;2022-09-09T08:31:06;5.97;;;3.70;;
7231;SDS011;3657;49.630;11.018;2022-09-09T08:33:38;3.70;;;3.50;;
7231;SDS011;3657;49.630;11.018;2022-09-09T08:36:06;3.90;;;3.70;;
7231;SDS011;3657;49.630;11.018;2022-09-09T08:38:35;3.50;;;3.30;;
7231;SDS011;3657;49.630;11.018;2022-09-09T08:44:22;3.00;;;2.90;;
7231;SDS011;3657;49.630;11.018;2022-09-09T08:47:00;3.20;;;3.10;;
7231;SDS011;3657;49.630;11.018;2022-09-09T08:49:46;3.50;;;3.23;;
7231;SDS011;3657;49.630;11.018;2022-09-09T08:52:25;3.63;;;3.53;;
7231;SDS011;3657;49.630;11.018;2022-09-09T08:54:55;2.73;;;2.63;;
7231;SDS011;3657;49.630;11.018;2022-09-09T08:57:28;2.80;;;2.70;;
7231;SDS011;3657;49.630;11.018;2022-09-09T08:59:59;3.10;;;3.00;;
7231;SDS011;3657;49.630;11.018;2022-09-09T09:02:27;3.13;;;3.03;;
7231;SDS011;3657;49.630;11.018;2022-09-09T09:05:01;2.97;;;2.87;;
7231;SDS011;3657;49.630;11.018;2022-09-09T09:07:42;3.40;;;3.27;;
7231;SDS011;3657;49.630;11.018;2022-09-09T09:10:19;2.97;;;2.87;;
7231;SDS011;3657;49.630;11.018;2022-09-09T09:12:58;3.13;;;3.03;;
7231;SDS011;3657;49.630;11.018;2022-09-09T09:15:28;3.17;;;3.07;;
7231;SDS011;3657;49.630;11.018;2022-09-09T09:18:01;4.37;;;3.40;;
7231;SDS011;3657;49.630;11.018;2022-09-09T09:20:29;2.93;;;2.83;;
7231;SDS011;3657;49.630;11.018;2022-09-09T09:23:04;2.65;;;2.55;;
7231;SDS011;3657;49.630;11.018;2022-09-09T09:25:33;2.50;;;2.37;;
7231;SDS011;3657;49.630;11.018;2022-09-09T09:28:10;3.10;;;2.90;;
7231;SDS011;3657;49.630;11.018;2022-09-09T09:30:44;2.50;;;2.40;;
7231;SDS011;3657;49.630;11.018;2022-09-09T09:33:17;2.77;;;2.67;;
7231;SDS011;3657;49.630;11.018;2022-09-09T09:35:48;2.37;;;2.37;;
7231;SDS011;3657;49.630;11.018;2022-09-09T09:38:16;2.93;;;2.83;;
7231;SDS011;3657;49.630;11.018;2022-09-09T09:40:48;2.17;;;2.13;;
7231;SDS011;3657;49.630;11.018;2022-09-09T09:43:19;2.83;;;2.73;;
7231;SDS011;3657;49.630;11.018;2022-09-09T09:45:50;2.37;;;2.27;;
7231;SDS011;3657;49.630;11.018;2022-09-09T09:48:17;2.10;;;1.93;;
7231;SDS011;3657;49.630;11.018;2022-09-09T09:50:48;2.40;;;2.30;;
7231;SDS011;3657;49.630;11.018;2022-09-09T09:53:18;2.70;;;2.60;;
7231;SDS011;3657;49.630;11.018;2022-09-09T09:55:50;2.07;;;1.93;;
7231;SDS011;3657;49.630;11.018;2022-09-09T09:58:24;2.00;;;1.87;;
7231;SDS011;3657;49.630;11.018;2022-09-09T10:00:53;1.67;;;1.63;;
7231;SDS011;3657;49.630;11.018;2022-09-09T10:03:22;1.87;;;1.83;;
7231;SDS011;3657;49.630;11.018;2022-09-09T10:05:50;3.97;;;2.47;;
7231;SDS011;3657;49.630;11.018;2022-09-09T10:08:17;2.87;;;2.77;;
7231;SDS011;3657;49.630;11.018;2022-09-09T10:10:48;3.50;;;2.37;;
7231;SDS011;3657;49.630;11.018;2022-09-09T10:13:25;1.80;;;1.80;;
7231;SDS011;3657;49.630;11.018;2022-09-09T10:16:01;2.43;;;2.23;;
7231;SDS011;3657;49.630;11.018;2022-09-09T10:18:45;2.27;;;2.07;;
7231;SDS011;3657;49.630;11.018;2022-09-09T10:21:22;2.00;;;2.00;;
7231;SDS011;3657;49.630;11.018;2022-09-09T10:24:04;2.33;;;2.13;;
7231;SDS011;3657;49.630;11.018;2022-09-09T10:26:43;2.10;;;2.00;;
7231;SDS011;3657;49.630;11.018;2022-09-09T10:29:23;1.90;;;1.80;;
7231;SDS011;3657;49.630;11.018;2022-09-09T10:32:14;2.10;;;2.00;;
7231;SDS011;3657;49.630;11.018;2022-09-09T10:35:01;1.83;;;1.73;;
7231;SDS011;3657;49.630;11.018;2022-09-09T10:37:34;1.80;;;1.80;;
7231;SDS011;3657;49.630;11.018;2022-09-09T10:40:19;8.83;;;8.23;;
7231;SDS011;3657;49.630;11.018;2022-09-09T10:42:53;2.73;;;2.63;;
7231;SDS011;3657;49.630;11.018;2022-09-09T10:45:26;4.07;;;3.87;;
7231;SDS011;3657;49.630;11.018;2022-09-09T10:48:06;2.00;;;1.90;;
7231;SDS011;3657;49.630;11.018;2022-09-09T10:50:45;2.27;;;2.17;;
7231;SDS011;3657;49.630;11.018;2022-09-09T10:53:21;2.50;;;2.40;;
7231;SDS011;3657;49.630;11.018;2022-09-09T10:56:01;2.40;;;2.30;;
7231;SDS011;3657;49.630;11.018;2022-09-09T10:58:33;7.00;;;2.03;;
7231;SDS011;3657;49.630;11.018;2022-09-09T11:01:09;2.10;;;1.90;;
7231;SDS011;3657;49.630;11.018;2022-09-09T11:03:43;1.73;;;1.73;;
7231;SDS011;3657;49.630;11.018;2022-09-09T11:06:16;2.27;;;2.20;;
7231;SDS011;3657;49.630;11.018;2022-09-09T11:08:45;2.10;;;2.00;;
7231;SDS011;3657;49.630;11.018;2022-09-09T11:11:16;2.30;;;2.20;;
7231;SDS011;3657;49.630;11.018;2022-09-09T11:13:47;2.30;;;2.10;;
7231;SDS011;3657;49.630;11.018;2022-09-09T11:16:21;1.97;;;1.87;;
7231;SDS011;3657;49.630;11.018;2022-09-09T11:18:54;1.90;;;1.83;;
7231;SDS011;3657;49.630;11.018;2022-09-09T11:21:25;1.73;;;1.63;;
7231;SDS011;3657;49.630;11.018;2022-09-09T11:23:56;1.80;;;1.80;;
7231;SDS011;3657;49.630;11.018;2022-09-09T11:26:29;2.30;;;2.17;;
7231;SDS011;3657;49.630;11.018;2022-09-09T11:29:07;2.50;;;2.40;;
7231;SDS011;3657;49.630;11.018;2022-09-09T11:32:19;1.87;;;1.87;;
7231;SDS011;3657;49.630;11.018;2022-09-09T11:35:11;1.93;;;1.83;;
7231;SDS011;3657;49.630;11.018;2022-09-09T11:37:52;1.53;;;1.53;;
7231;SDS011;3657;49.630;11.018;2022-09-09T11:40:28;1.87;;;1.77;;
7231;SDS011;3657;49.630;11.018;2022-09-09T11:43:03;1.60;;;1.53;;
7231;SDS011;3657;49.630;11.018;2022-09-09T11:45:35;2.00;;;1.90;;
7231;SDS011;3657;49.630;11.018;2022-09-09T11:48:03;1.60;;;1.50;;
7231;SDS011;3657;49.630;11.018;2022-09-09T11:50:36;1.50;;;1.50;;
7231;SDS011;3657;49.630;11.018;2022-09-09T11:53:14;1.80;;;1.77;;
7231;SDS011;3657;49.630;11.018;2022-09-09T11:58:43;2.10;;;1.93;;
7231;SDS011;3657;49.630;11.018;2022-09-09T12:01:26;1.57;;;1.57;;
7231;SDS011;3657;49.630;11.018;2022-09-09T12:04:00;1.63;;;1.63;;
7231;SDS011;3657;49.630;11.018;2022-09-09T12:06:43;2.30;;;2.20;;
7231;SDS011;3657;49.630;11.018;2022-09-09T12:09:17;2.00;;;1.50;;
7231;SDS011;3657;49.630;11.018;2022-09-09T12:11:50;1.80;;;1.80;;
7231;SDS011;3657;49.630;11.018;2022-09-09T12:14:21;1.73;;;1.47;;
7231;SDS011;3657;49.630;11.018;2022-09-09T12:16:49;1.90;;;1.90;;
7231;SDS011;3657;49.630;11.018;2022-09-09T12:19:18;1.67;;;1.60;;
7231;SDS011;3657;49.630;11.018;2022-09-09T12:21:51;2.20;;;2.10;;
7231;SDS011;3657;49.630;11.018;2022-09-09T12:24:26;2.20;;;2.10;;
7231;SDS011;3657;49.630;11.018;2022-09-09T12:27:02;1.90;;;1.90;;
7231;SDS011;3657;49.630;11.018;2022-09-09T12:29:41;1.83;;;1.70;;
7231;SDS011;3657;49.630;11.018;2022-09-09T12:32:16;2.20;;;2.10;;
7231;SDS011;3657;49.630;11.018;2022-09-09T12:34:46;1.80;;;1.80;;
7231;SDS011;3657;49.630;11.018;2022-09-09T12:37:19;2.17;;;2.07;;
7231;SDS011;3657;49.630;11.018;2022-09-09T12:39:54;1.90;;;1.80;;
7231;SDS011;3657;49.630;11.018;2022-09-09T12:42:22;2.10;;;2.00;;
7231;SDS011;3657;49.630;11.018;2022-09-09T12:44:53;1.27;;;1.27;;
7231;SDS011;3657;49.630;11.018;2022-09-09T12:47:22;1.90;;;1.57;;
7231;SDS011;3657;49.630;11.018;2022-09-09T12:50:03;1.63;;;1.63;;
7231;SDS011;3657;49.630;11.018;2022-09-09T12:52:32;1.87;;;1.73;;
7231;SDS011;3657;49.630;11.018;2022-09-09T12:55:04;1.60;;;1.60;;
7231;SDS011;3657;49.630;11.018;2022-09-09T12:57:34;2.50;;;2.40;;
7231;SDS011;3657;49.630;11.018;2022-09-09T13:00:04;1.80;;;1.70;;
7231;SDS011;3657;49.630;11.018;2022-09-09T13:02:36;1.47;;;1.47;;
7231;SDS011;3657;49.630;11.018;2022-09-09T13:05:13;2.10;;;1.97;;
7231;SDS011;3657;49.630;11.018;2022-09-09T13:07:43;1.70;;;1.60;;
7231;SDS011;3657;49.630;11.018;2022-09-09T13:10:11;1.80;;;1.70;;
7231;SDS011;3657;49.630;11.018;2022-09-09T13:12:38;2.20;;;2.10;;
7231;SDS011;3657;49.630;11.018;2022-09-09T13:15:10;2.30;;;2.20;;
7231;SDS011;3657;49.630;11.018;2022-09-09T13:17:42;1.87;;;1.83;;
7231;SDS011;3657;49.630;11.018;2022-09-09T13:20:15;2.10;;;2.10;;
7231;SDS011;3657;49.630;11.018;2022-09-09T13:22:44;2.33;;;2.23;;
7231;SDS011;3657;49.630;11.018;2022-09-09T13:25:18;2.63;;;2.53;;
7231;SDS011;3657;49.630;11.018;2022-09-09T13:27:57;2.43;;;2.33;;
7231;SDS011;3657;49.630;11.018;2022-09-09T13:30:26;2.30;;;2.00;;
7231;SDS011;3657;49.630;11.018;2022-09-09T13:33:02;4.10;;;2.17;;
7231;SDS011;3657;49.630;11.018;2022-09-09T13:35:31;2.33;;;2.23;;
7231;SDS011;3657;49.630;11.018;2022-09-09T13:37:59;2.70;;;2.60;;
7231;SDS011;3657;49.630;11.018;2022-09-09T13:40:33;2.90;;;2.17;;
7231;SDS011;3657;49.630;11.018;2022-09-09T13:43:01;2.13;;;2.03;;
7231;SDS011;3657;49.630;11.018;2022-09-09T13:45:30;2.03;;;1.93;;
7231;SDS011;3657;49.630;11.018;2022-09-09T13:47:59;1.97;;;1.87;;
7231;SDS011;3657;49.630;11.018;2022-09-09T13:50:36;1.93;;;1.83;;
7231;SDS011;3657;49.630;11.018;2022-09-09T13:53:04;1.93;;;1.83;;
7231;SDS011;3657;49.630;11.018;2022-09-09T13:55:30;2.00;;;1.90;;
7231;SDS011;3657;49.630;11.018;2022-09-09T13:57:58;2.20;;;2.10;;
7231;SDS011;3657;49.630;11.018;2022-09-09T14:00:27;2.10;;;2.00;;
7231;SDS011;3657;49.630;11.018;2022-09-09T14:02:56;1.80;;;1.70;;
7231;SDS011;3657;49.630;11.018;2022-09-09T14:05:23;1.43;;;1.20;;
7231;SDS011;3657;49.630;11.018;2022-09-09T14:07:50;1.67;;;1.67;;
7231;SDS011;3657;49.630;11.018;2022-09-09T14:10:18;2.40;;;2.30;;
7231;SDS011;3657;49.630;11.018;2022-09-09T14:12:45;2.60;;;2.50;;
7231;SDS011;3657;49.630;11.018;2022-09-09T14:15:13;1.67;;;1.60;;
7231;SDS011;3657;49.630;11.018;2022-09-09T14:17:41;2.33;;;2.23;;
7231;SDS011;3657;49.630;11.018;2022-09-09T14:20:09;2.23;;;2.13;;
7231;SDS011;3657;49.630;11.018;2022-09-09T14:22:40;2.10;;;2.07;;
7231;SDS011;3657;49.630;11.018;2022-09-09T14:25:07;2.83;;;2.63;;
7231;SDS011;3657;49.630;11.018;2022-09-09T14:27:35;1.80;;;1.80;;
7231;SDS011;3657;49.630;11.018;2022-09-09T14:30:04;2.87;;;2.77;;
7231;SDS011;3657;49.630;11.018;2022-09-09T14:32:32;2.17;;;2.07;;
7231;SDS011;3657;49.630;11.018;2022-09-09T14:34:59;2.23;;;2.13;;
7231;SDS011;3657;49.630;11.018;2022-09-09T14:37:26;2.33;;;2.27;;
7231;SDS011;3657;49.630;11.018;2022-09-09T14:39:53;3.63;;;2.33;;
7231;SDS011;3657;49.630;11.018;2022-09-09T14:42:21;2.10;;;2.00;;
7231;SDS011;3657;49.630;11.018;2022-09-09T14:44:49;3.00;;;2.63;;
7231;SDS011;3657;49.630;11.018;2022-09-09T14:47:16;2.17;;;2.13;;
7231;SDS011;3657;49.630;11.018;2022-09-09T14:49:43;1.80;;;1.80;;
7231;SDS011;3657;49.630;11.018;2022-09-09T14:52:10;2.37;;;2.17;;
7231;SDS011;3657;49.630;11.018;2022-09-09T14:54:38;2.33;;;2.23;;
7231;SDS011;3657;49.630;11.018;2022-09-09T14:57:05;2.60;;;2.40;;
7231;SDS011;3657;49.630;11.018;2022-09-09T14:59:31;2.00;;;1.90;;
7231;SDS011;3657;49.630;11.018;2022-09-09T15:02:00;2.20;;;2.10;;
7231;SDS011;3657;49.630;11.018;2022-09-09T15:04:29;1.53;;;1.53;;
7231;SDS011;3657;49.630;11.018;2022-09-09T15:06:56;2.07;;;2.00;;
7231;SDS011;3657;49.630;11.018;2022-09-09T15:09:23;2.60;;;2.50;;
7231;SDS011;3657;49.630;11.018;2022-09-09T15:11:50;2.60;;;2.50;;
7231;SDS011;3657;49.630;11.018;2022-09-09T15:14:17;2.43;;;2.30;;
7231;SDS011;3657;49.630;11.018;2022-09-09T15:16:43;2.97;;;2.87;;
7231;SDS011;3657;49.630;11.018;2022-09-09T15:19:11;2.83;;;2.73;;
7231;SDS011;3657;49.630;11.018;2022-09-09T15:21:38;2.80;;;2.70;;
7231;SDS011;3657;49.630;11.018;2022-09-09T15:24:05;2.57;;;2.37;;
7231;SDS011;3657;49.630;11.018;2022-09-09T15:26:33;2.30;;;2.20;;
7231;SDS011;3657;49.630;11.018;2022-09-09T15:29:01;3.37;;;3.13;;